Time;durP1;ratioP1;P1;durP2;ratioP2;P2;SDS_P1;SDS_P2;PMS_P1;PMS_P2;Temp;Humidity;BMP_temperature;BMP_pressure;BME280_temperature;BME280_humidity;BME280_pressure;Samples;Min_cycle;Max_cycle;Signal;HPM_P1;HPM_P2
2023/12/19 00:01:25;;;;;;;1.60;1.50;;;;;;;-145.63;61.42;39388.00;5049023;28;20056;-64
2023/12/19 00:03:52;;;;;;;1.40;1.30;;;;;;;-145.63;61.16;39366.50;5050618;28;20036;-64
2023/12/19 00:06:18;;;;;;;1.13;1.13;;;;;;;-145.63;60.72;39393.88;5060955;28;20024;-62
2023/12/19 00:08:43;;;;;;;2.75;1.33;;;;;;;-145.63;61.57;39388.00;5062607;28;20040;-63
2023/12/19 00:11:09;;;;;;;3.95;1.60;;;;;;;-145.63;61.40;39384.09;5062108;28;20059;-64
2023/12/19 00:13:35;;;;;;;1.92;1.60;;;;;;;-145.63;61.04;39118.13;5051295;28;20029;-63
2023/12/19 00:16:03;;;;;;;3.60;1.55;;;;;;;-145.63;61.58;39386.06;5064958;28;20047;-65
2023/12/19 00:18:30;;;;;;;2.42;1.80;;;;;;;-145.63;61.46;39386.06;5080456;28;20027;-65
2023/12/19 00:20:56;;;;;;;3.22;1.63;;;;;;;-145.63;61.82;39341.06;5064914;28;20032;-64
2023/12/19 00:23:22;;;;;;;2.65;1.65;;;;;;;-145.63;61.42;39362.59;5045978;28;20053;-64
2023/12/19 00:25:48;;;;;;;2.22;1.83;;;;;;;-145.63;61.75;39411.47;5062093;28;20055;-65
2023/12/19 00:28:14;;;;;;;2.28;1.88;;;;;;;-145.63;61.51;39395.84;5054318;28;20025;-65
2023/12/19 00:30:40;;;;;;;2.10;1.90;;;;;;;-145.63;61.21;39382.13;5052304;28;20237;-63
2023/12/19 00:33:06;;;;;;;1.63;1.52;;;;;;;-145.63;61.27;39395.84;5063435;28;20017;-63
2023/12/19 00:35:33;;;;;;;2.90;1.75;;;;;;;-145.63;61.17;39399.75;5045796;28;20053;-63
2023/12/19 00:38:02;;;;;;;2.17;1.85;;;;;;;-145.63;60.75;39386.06;5063015;28;20029;-64
2023/12/19 00:40:28;;;;;;;1.70;1.60;;;;;;;-145.63;61.11;39388.00;5052330;28;20310;-64
2023/12/19 00:42:53;;;;;;;2.70;1.65;;;;;;;-145.63;60.70;39331.28;5053745;28;20031;-64
2023/12/19 00:45:19;;;;;;;2.53;1.80;;;;;;;-145.63;60.82;39348.88;5065446;28;20314;-63
2023/12/19 00:47:45;;;;;;;1.75;1.65;;;;;;;-145.63;60.96;39376.28;5065496;28;20324;-62
2023/12/19 00:50:15;;;;;;;4.28;2.08;;;;;;;-145.63;61.26;39368.44;5060034;28;20021;-63
2023/12/19 00:52:44;;;;;;;2.63;1.52;;;;;;;-145.63;61.04;39405.59;5065607;28;20120;-64
2023/12/19 00:55:10;;;;;;;1.48;1.30;;;;;;;-145.63;60.74;39374.31;5054500;28;20088;-64
2023/12/19 00:57:35;;;;;;;4.50;1.58;;;;;;;-145.63;60.85;39366.50;5051060;28;20033;-64
2023/12/19 01:00:02;;;;;;;1.75;1.63;;;;;;;-145.63;60.90;39325.41;5063995;28;20024;-64
2023/12/19 01:02:31;;;;;;;1.90;1.70;;;;;;;-145.63;61.00;39386.06;5045154;28;20029;-63
2023/12/19 01:04:57;;;;;;;2.20;1.73;;;;;;;-145.63;60.59;39165.06;5061623;28;20092;-64
2023/12/19 01:07:26;;;;;;;2.40;1.95;;;;;;;-145.63;61.07;39368.44;5065173;28;20028;-61
2023/12/19 01:09:52;;;;;;;2.72;1.92;;;;;;;-145.63;60.89;39380.19;5064909;28;20025;-63
2023/12/19 01:12:18;;;;;;;3.08;1.90;;;;;;;-145.63;60.76;39374.31;5061665;28;20199;-63
2023/12/19 01:14:45;;;;;;;3.20;2.05;;;;;;;-145.63;60.32;39380.19;5045319;28;20021;-64
2023/12/19 01:17:11;;;;;;;2.40;2.20;;;;;;;-145.63;60.85;39300.00;5063468;28;20017;-63
2023/12/19 01:19:37;;;;;;;2.72;1.88;;;;;;;-145.63;60.59;39401.69;5055175;28;20066;-63
2023/12/19 01:22:04;;;;;;;2.75;1.80;;;;;;;-145.63;60.59;39384.09;5055610;28;20025;-63
2023/12/19 01:24:30;;;;;;;2.97;2.00;;;;;;;-145.63;60.57;39386.06;5049773;28;20025;-62
2023/12/19 01:26:56;;;;;;;2.42;2.13;;;;;;;-145.63;60.65;39358.66;5064491;28;20032;-64
2023/12/19 01:29:25;;;;;;;2.88;2.20;;;;;;;-145.63;60.38;39384.09;5064670;28;20080;-64
2023/12/19 01:31:51;;;;;;;1.70;1.60;;;;;;;-145.63;59.99;39368.44;5048675;28;20322;-63
2023/12/19 01:34:17;;;;;;;1.80;1.70;;;;;;;-145.63;60.34;39354.75;5055533;28;20033;-64
2023/12/19 01:36:42;;;;;;;2.25;1.70;;;;;;;-145.63;60.40;39374.31;5058092;28;20096;-63
2023/12/19 01:39:08;;;;;;;3.03;1.77;;;;;;;-145.63;60.19;39370.41;5045932;28;20032;-64
2023/12/19 01:41:34;;;;;;;3.30;1.70;;;;;;;-145.63;60.61;39378.22;5064406;28;20047;-65
2023/12/19 01:44:00;;;;;;;4.47;1.95;;;;;;;-145.63;60.77;39388.00;5064267;28;20025;-62
2023/12/19 01:46:27;;;;;;;3.05;2.00;;;;;;;-145.63;60.68;39415.38;5064468;28;20110;-64
2023/12/19 01:48:53;;;;;;;2.42;1.90;;;;;;;-145.63;61.07;39344.97;5059836;28;20013;-63
2023/12/19 01:51:20;;;;;;;2.03;1.90;;;;;;;-145.63;61.13;39184.59;5064397;28;20025;-62
2023/12/19 01:53:49;;;;;;;2.03;1.83;;;;;;;-145.63;61.08;39374.31;5064451;28;20029;-62
2023/12/19 01:56:17;;;;;;;5.68;2.20;;;;;;;-145.63;60.70;39389.97;5044977;28;20029;-62
2023/12/19 01:58:44;;;;;;;3.40;2.05;;;;;;;-145.63;61.03;39409.53;5058596;28;20205;-63
2023/12/19 02:01:12;;;;;;;1.73;1.63;;;;;;;-145.63;61.57;38558.84;5053667;28;20083;-63
2023/12/19 02:03:40;;;;;;;2.30;2.10;;;;;;;-145.63;61.85;39393.88;5048653;28;20034;-63
2023/12/19 02:06:07;;;;;;;1.83;1.73;;;;;;;-145.63;61.31;39431.03;5063853;28;20115;-62
2023/12/19 02:08:34;;;;;;;3.05;1.70;;;;;;;-145.63;61.31;39399.75;5062879;28;20373;-63
2023/12/19 02:11:00;;;;;;;2.25;1.60;;;;;;;-145.63;61.62;39405.59;5063706;28;20041;-63
2023/12/19 02:13:27;;;;;;;2.00;1.90;;;;;;;-145.63;61.04;39388.00;5051573;28;20033;-62
2023/12/19 02:15:53;;;;;;;3.00;1.85;;;;;;;-145.63;61.42;39391.91;5050961;28;20041;-63
2023/12/19 02:18:20;;;;;;;1.73;1.63;;;;;;;-145.63;61.39;39372.34;5060865;28;20520;-64
2023/12/19 02:20:47;;;;;;;1.60;1.50;;;;;;;-145.63;61.51;39407.56;5062352;28;20024;-62
2023/12/19 02:23:13;;;;;;;1.70;1.60;;;;;;;-145.63;61.38;39372.34;5063603;28;20029;-64
2023/12/19 02:25:39;;;;;;;1.70;1.60;;;;;;;-145.63;61.04;39382.13;5077117;28;20029;-64
2023/12/19 02:28:06;;;;;;;1.65;1.55;;;;;;;-145.63;61.05;39368.44;5074341;28;20021;-64
2023/12/19 02:30:34;;;;;;;1.83;1.27;;;;;;;-145.63;60.75;39413.44;5059032;28;20056;-62
2023/12/19 02:33:01;;;;;;;1.58;1.45;;;;;;;-145.63;60.70;39372.34;5043403;28;20025;-63
2023/12/19 02:35:27;;;;;;;1.38;1.27;;;;;;;-145.63;61.23;39370.41;5062729;28;20033;-64
2023/12/19 02:37:53;;;;;;;2.80;1.48;;;;;;;-145.63;61.27;39378.22;5047556;28;20044;-62
2023/12/19 02:40:18;;;;;;;2.35;1.50;;;;;;;-145.63;61.78;39380.19;5060454;28;20025;-63
2023/12/19 02:42:44;;;;;;;1.85;1.70;;;;;;;-145.63;61.85;39378.22;5063162;28;20021;-63
2023/12/19 02:45:10;;;;;;;2.80;1.77;;;;;;;-145.63;62.05;39382.13;5063054;28;20067;-62
2023/12/19 02:47:37;;;;;;;2.00;1.80;;;;;;;-145.63;61.83;39382.13;5063111;28;20033;-63
2023/12/19 02:50:03;;;;;;;4.65;1.83;;;;;;;-145.63;62.19;39376.28;5059246;28;20024;-63
2023/12/19 02:52:30;;;;;;;3.17;2.10;;;;;;;-145.63;62.41;39388.00;5051154;28;20076;-63
2023/12/19 02:54:56;;;;;;;2.08;1.90;;;;;;;-145.63;62.26;39386.06;5050665;28;20313;-62
2023/12/19 02:57:22;;;;;;;2.65;1.98;;;;;;;-145.63;62.60;39380.19;5063067;28;20040;-64
2023/12/19 02:59:48;;;;;;;2.25;2.05;;;;;;;-145.63;62.92;39356.72;5062654;28;20020;-63
2023/12/19 03:02:14;;;;;;;2.25;1.85;;;;;;;-145.63;62.79;39389.97;5062575;28;20041;-65
2023/12/19 03:04:39;;;;;;;3.28;2.50;;;;;;;-145.63;63.12;39380.19;5053500;28;20033;-63
2023/12/19 03:07:06;;;;;;;2.72;2.53;;;;;;;-145.63;63.32;39413.44;5062571;28;20031;-62
2023/12/19 03:09:31;;;;;;;2.90;2.70;;;;;;;-145.63;63.12;39380.19;5062607;28;20033;-62
2023/12/19 03:12:03;;;;;;;4.38;3.17;;;;;;;-145.63;63.40;39374.31;5062368;28;20061;-63
2023/12/19 03:14:33;;;;;;;3.30;2.78;;;;;;;-145.63;63.43;38813.03;5042954;28;20018;-62
2023/12/19 03:17:04;;;;;;;4.45;3.28;;;;;;;-145.63;63.24;39384.09;5058645;28;20047;-63
2023/12/19 03:19:30;;;;;;;4.15;3.38;;;;;;;-145.63;63.43;39348.88;5062551;28;20297;-63
2023/12/19 03:21:56;;;;;;;2.92;2.63;;;;;;;-145.63;63.07;39372.34;5055050;28;20356;-62
2023/12/19 03:24:22;;;;;;;2.92;2.65;;;;;;;-145.63;63.08;39411.47;5045278;28;20037;-63
2023/12/19 03:26:48;;;;;;;4.20;2.72;;;;;;;-145.63;63.20;39391.91;5061766;28;20021;-64
2023/12/19 03:29:14;;;;;;;4.78;3.50;;;;;;;-145.63;63.00;39399.75;5062267;28;20158;-63
2023/12/19 03:31:40;;;;;;;3.78;3.22;;;;;;;-145.63;63.41;39393.88;5062478;28;20393;-62
2023/12/19 03:34:06;;;;;;;3.97;3.13;;;;;;;-145.63;63.19;39368.44;5058060;28;20090;-62
2023/12/19 03:36:32;;;;;;;3.80;2.83;;;;;;;-145.63;63.32;39407.56;5062513;28;20049;-63
2023/12/19 03:38:57;;;;;;;2.88;2.60;;;;;;;-145.63;63.28;39391.91;5062310;28;20232;-63
2023/12/19 03:41:23;;;;;;;3.42;2.50;;;;;;;-145.63;62.68;39401.69;5062512;28;20035;-62
2023/12/19 03:43:49;;;;;;;3.55;2.90;;;;;;;-145.63;62.90;39388.00;5062460;28;20429;-63
2023/12/19 03:46:14;;;;;;;4.00;2.60;;;;;;;-145.63;62.75;39389.97;5062375;28;20375;-62
2023/12/19 03:48:45;;;;;;;3.22;2.75;;;;;;;-145.63;62.42;39403.66;5062794;28;20092;-62
2023/12/19 03:51:12;;;;;;;2.53;2.33;;;;;;;-145.63;62.30;39399.75;5066795;28;20031;-63
2023/12/19 03:53:38;;;;;;;3.50;2.75;;;;;;;-145.63;62.01;39417.34;5079128;28;20028;-63
2023/12/19 03:56:05;;;;;;;3.22;2.28;;;;;;;-145.63;62.10;39372.34;5066129;28;20025;-64
2023/12/19 03:58:30;;;;;;;2.65;2.40;;;;;;;-145.63;61.94;39376.28;5054475;28;20029;-64
2023/12/19 04:00:56;;;;;;;3.10;2.30;;;;;;;-145.63;61.45;39364.53;5050159;28;20072;-66
2023/12/19 04:03:22;;;;;;;4.07;2.40;;;;;;;-145.63;61.58;39204.16;5063970;28;20025;-64
2023/12/19 04:05:48;;;;;;;4.95;2.30;;;;;;;-145.63;61.37;39376.28;5066039;28;20036;-64
2023/12/19 04:08:13;;;;;;;3.30;2.55;;;;;;;-145.63;61.31;39399.75;5065967;28;20123;-64
2023/12/19 04:10:39;;;;;;;4.15;2.10;;;;;;;-145.63;61.22;39380.19;5058667;28;20017;-64
2023/12/19 04:13:05;;;;;;;5.03;2.28;;;;;;;-145.63;60.96;39372.34;5065363;28;20317;-64
2023/12/19 04:15:30;;;;;;;6.32;2.53;;;;;;;-145.63;61.36;39358.66;5064805;28;20302;-64
2023/12/19 04:17:56;;;;;;;1.83;1.63;;;;;;;-145.63;60.79;39376.28;5065632;28;20040;-64
2023/12/19 04:20:22;;;;;;;3.40;2.00;;;;;;;-145.63;61.00;39123.97;5062213;28;20195;-64
2023/12/19 04:22:47;;;;;;;2.28;1.67;;;;;;;-145.63;60.43;39364.53;5065615;28;20056;-64
2023/12/19 04:25:13;;;;;;;2.50;1.75;;;;;;;-145.63;60.76;39419.31;5056624;28;20218;-64
2023/12/19 04:27:39;;;;;;;2.50;1.42;;;;;;;-145.63;59.96;39370.41;5049940;28;20033;-65
2023/12/19 04:30:06;;;;;;;0.95;0.80;;;;;;;-145.63;59.47;39389.97;5065610;28;20234;-64
2023/12/19 04:32:31;;;;;;;0.63;0.63;;;;;;;-145.63;59.31;39401.69;5061881;28;20029;-65
2023/12/19 04:34:57;;;;;;;0.85;0.73;;;;;;;-145.63;58.82;39341.06;5049789;28;20068;-63
2023/12/19 04:37:23;;;;;;;1.20;0.70;;;;;;;-145.63;59.35;39391.91;5055715;28;20209;-66
2023/12/19 04:39:48;;;;;;;1.20;1.10;;;;;;;-145.63;59.44;39391.91;5065158;28;20238;-64
2023/12/19 04:42:17;;;;;;;1.80;1.40;;;;;;;-145.63;59.80;39362.59;5060814;28;20052;-64
2023/12/19 04:44:44;;;;;;;1.05;0.95;;;;;;;-145.63;59.88;39401.69;5069214;28;20059;-64
2023/12/19 04:47:10;;;;;;;5.95;1.83;;;;;;;-145.63;60.02;39382.13;5064988;28;20039;-63
2023/12/19 04:49:36;;;;;;;2.17;1.73;;;;;;;-145.63;59.93;39360.63;5062261;28;20048;-62
2023/12/19 04:52:03;;;;;;;2.50;1.90;;;;;;;-145.63;59.73;39380.19;5057649;28;20520;-61
2023/12/19 04:54:28;;;;;;;2.97;1.80;;;;;;;-145.63;59.57;39364.53;5061896;28;20032;-63
2023/12/19 04:56:54;;;;;;;2.08;1.60;;;;;;;-145.63;60.02;39409.53;5063741;28;20025;-62
2023/12/19 04:59:20;;;;;;;1.90;1.70;;;;;;;-145.63;60.29;39395.84;5061797;28;20016;-63
2023/12/19 05:01:46;;;;;;;2.65;1.70;;;;;;;-145.63;60.34;39364.53;5064391;28;20076;-63
2023/12/19 05:04:12;;;;;;;2.13;1.75;;;;;;;-145.63;60.31;39391.91;5061018;28;20210;-62
2023/12/19 05:06:38;;;;;;;2.22;1.63;;;;;;;-145.63;60.25;39368.44;5063032;28;20055;-62
2023/12/19 05:09:03;;;;;;;3.13;1.63;;;;;;;-145.63;60.12;39374.31;5064494;28;20024;-63
2023/12/19 05:11:29;;;;;;;1.98;1.73;;;;;;;-145.63;60.55;39391.91;5064480;28;20057;-62
2023/12/19 05:13:55;;;;;;;2.05;1.80;;;;;;;-145.63;59.99;39346.94;5049914;28;20333;-62
2023/12/19 05:16:20;;;;;;;3.72;1.80;;;;;;;-145.63;60.09;39388.00;5057836;28;20021;-62
2023/12/19 05:18:46;;;;;;;3.75;2.38;;;;;;;-145.63;60.16;39356.72;5061795;28;20195;-62
2023/12/19 05:21:12;;;;;;;3.35;1.70;;;;;;;-145.63;60.08;39434.94;5063730;28;20481;-62
2023/12/19 05:23:39;;;;;;;1.92;1.70;;;;;;;-145.63;59.73;39372.34;5062371;28;20028;-62
2023/12/19 05:26:06;;;;;;;2.25;1.50;;;;;;;-145.63;60.17;39372.34;5063439;28;20051;-61
2023/12/19 05:28:35;;;;;;;2.63;1.80;;;;;;;-145.63;60.05;39421.25;5061754;28;20339;-63
2023/12/19 05:31:02;;;;;;;1.65;1.55;;;;;;;-145.63;60.15;39374.31;5062147;28;20301;-62
2023/12/19 05:33:29;;;;;;;1.55;1.45;;;;;;;-145.63;59.75;39376.28;5063819;28;20304;-62
2023/12/19 05:35:55;;;;;;;3.28;1.40;;;;;;;-145.63;59.11;39384.09;5063068;28;20045;-63
2023/12/19 05:38:22;;;;;;;3.30;1.50;;;;;;;-145.63;59.47;39388.00;5063842;28;20029;-65
2023/12/19 05:40:48;;;;;;;2.65;1.40;;;;;;;-145.63;59.76;39399.75;5063505;28;20174;-61
2023/12/19 05:43:14;;;;;;;2.88;1.63;;;;;;;-145.63;59.86;39384.09;5063504;28;20092;-65
2023/12/19 05:45:41;;;;;;;2.30;1.55;;;;;;;-145.63;60.21;39388.00;5063632;28;20039;-63
2023/12/19 05:48:07;;;;;;;1.80;1.65;;;;;;;-145.63;60.13;39403.66;5063509;28;20317;-63
2023/12/19 05:50:33;;;;;;;1.88;1.70;;;;;;;-145.63;60.15;39380.19;5062063;28;20379;-64
2023/12/19 05:52:59;;;;;;;2.30;2.10;;;;;;;-145.63;59.90;39366.50;5059150;28;20026;-64
2023/12/19 05:55:25;;;;;;;3.42;2.53;;;;;;;-145.63;60.17;39397.78;5063762;28;20040;-63
2023/12/19 05:57:50;;;;;;;2.95;2.28;;;;;;;-145.63;60.77;39362.59;5058614;28;20063;-64
2023/12/19 06:00:17;;;;;;;4.32;2.67;;;;;;;-145.63;60.58;39456.47;5044557;28;20325;-63
2023/12/19 06:02:49;;;;;;;2.97;2.35;;;;;;;-145.63;60.77;39391.91;5047269;28;20100;-63
2023/12/19 06:05:14;;;;;;;3.22;2.60;;;;;;;-145.63;60.40;39374.31;5062154;28;20036;-67
2023/12/19 06:07:41;;;;;;;2.88;2.33;;;;;;;-145.63;60.10;39393.88;5063174;28;20033;-64
2023/12/19 06:10:11;;;;;;;3.85;2.95;;;;;;;-145.63;60.26;39364.53;5061165;28;20181;-64
2023/12/19 06:12:37;;;;;;;4.22;2.53;;;;;;;-145.63;60.36;39384.09;5063616;28;20031;-64
2023/12/19 06:15:13;;;;;;;3.17;2.65;;;;;;;-145.63;60.31;39374.31;5061638;28;20025;-65
2023/12/19 06:17:43;;;;;;;3.28;2.63;;;;;;;-145.63;59.88;38820.88;5063310;28;20024;-65
2023/12/19 06:20:10;;;;;;;4.35;2.83;;;;;;;-145.63;59.61;39380.19;5061045;28;20024;-64
2023/12/19 06:22:37;;;;;;;3.15;2.40;;;;;;;-145.63;60.04;39388.00;5061903;28;20086;-65
2023/12/19 06:25:03;;;;;;;4.18;2.58;;;;;;;-145.63;59.72;39391.91;5062571;28;20021;-65
2023/12/19 06:27:32;;;;;;;2.72;2.30;;;;;;;-145.63;59.98;39364.53;5062985;28;20028;-65
2023/12/19 06:29:58;;;;;;;2.60;2.40;;;;;;;-145.63;60.30;39372.34;5062864;28;20089;-65
2023/12/19 06:32:24;;;;;;;2.47;2.20;;;;;;;-145.63;60.10;39397.78;5061062;28;20032;-64
2023/12/19 06:34:50;;;;;;;3.60;2.40;;;;;;;-145.63;60.51;39370.41;5050469;28;20096;-64
2023/12/19 06:37:15;;;;;;;4.43;3.40;;;;;;;-145.63;60.27;39401.69;4992282;28;20057;-65
2023/12/19 06:39:42;;;;;;;5.57;3.92;;;;;;;-145.63;60.60;39384.09;5063250;28;20053;-65
2023/12/19 06:42:08;;;;;;;9.63;5.93;;;;;;;-145.63;60.41;39395.84;5059111;28;20357;-65
2023/12/19 06:44:33;;;;;;;3.33;3.03;;;;;;;-145.63;60.86;39417.34;5062539;28;20049;-64
2023/12/19 06:46:59;;;;;;;5.28;3.08;;;;;;;-145.63;60.72;39368.44;5062871;28;20340;-64
2023/12/19 06:49:25;;;;;;;6.13;3.50;;;;;;;-145.63;60.54;39376.28;5062811;28;20024;-65
2023/12/19 06:51:52;;;;;;;5.88;3.53;;;;;;;-145.63;60.59;39380.19;5060945;28;20051;-65
2023/12/19 06:54:18;;;;;;;3.63;2.80;;;;;;;-145.63;60.97;39344.97;5061922;28;20115;-64
2023/12/19 06:56:44;;;;;;;5.10;2.90;;;;;;;-145.63;60.99;39358.66;5042840;28;20037;-66
2023/12/19 06:59:10;;;;;;;4.85;3.13;;;;;;;-145.63;61.22;39380.19;5058205;28;20017;-65
2023/12/19 07:01:36;;;;;;;3.80;2.72;;;;;;;-145.63;60.88;39380.19;5061512;28;20064;-65
2023/12/19 07:04:03;;;;;;;2.95;2.63;;;;;;;-145.63;61.21;39341.06;5059230;28;20074;-64
2023/12/19 07:06:30;;;;;;;4.53;2.67;;;;;;;-145.63;61.58;39360.63;5062530;28;20165;-65
2023/12/19 07:08:55;;;;;;;3.53;2.90;;;;;;;-145.63;61.31;39364.53;5055732;28;20056;-64
2023/12/19 07:11:22;;;;;;;3.55;2.85;;;;;;;-145.63;61.13;39380.19;5056480;28;20025;-66
2023/12/19 07:13:47;;;;;;;3.42;2.63;;;;;;;-145.63;61.55;39419.31;5061623;28;20029;-66
2023/12/19 07:16:16;;;;;;;2.78;2.50;;;;;;;-145.63;61.50;39356.72;5061118;28;20025;-65
2023/12/19 07:18:43;;;;;;;3.88;2.40;;;;;;;-145.63;61.94;39382.13;5061177;28;20039;-66
2023/12/19 07:21:21;;;;;;;3.88;2.60;;;;;;;-145.63;61.56;39407.56;5059533;28;20071;-65
2023/12/19 07:23:47;;;;;;;2.63;2.08;;;;;;;-145.63;61.61;39384.09;5062084;28;20029;-65
2023/12/19 07:26:24;;;;;;;3.08;2.10;;;;;;;-145.63;60.94;39356.72;5062038;28;20524;-65
2023/12/19 07:28:51;;;;;;;2.13;1.77;;;;;;;-145.63;60.75;39368.44;5060113;28;20079;-64
2023/12/19 07:31:28;;;;;;;1.70;1.60;;;;;;;-145.63;61.54;39362.59;5061962;28;20048;-66
2023/12/19 07:33:56;;;;;;;3.08;1.88;;;;;;;-145.63;61.39;39356.72;5057474;28;20413;-65
2023/12/19 07:36:23;;;;;;;2.20;2.00;;;;;;;-145.63;61.46;39354.75;5061618;28;20035;-65
2023/12/19 07:38:49;;;;;;;3.80;2.35;;;;;;;-145.63;60.76;39384.09;5045784;28;20052;-65
2023/12/19 07:41:15;;;;;;;5.70;2.22;;;;;;;-145.63;60.34;39380.19;5050416;28;20032;-64
2023/12/19 07:43:41;;;;;;;4.72;2.33;;;;;;;-145.63;60.54;39388.00;5058204;28;20032;-65
2023/12/19 07:46:07;;;;;;;5.78;1.98;;;;;;;-145.63;60.76;39380.19;5060026;28;20341;-64
2023/12/19 07:48:33;;;;;;;2.67;1.98;;;;;;;-145.63;60.38;39413.44;5059606;28;20029;-64
2023/12/19 07:50:59;;;;;;;2.97;2.50;;;;;;;-145.63;60.54;39380.19;5059278;28;20088;-62
2023/12/19 07:53:28;;;;;;;4.28;2.40;;;;;;;-145.63;60.68;39370.41;5061773;28;20059;-64
2023/12/19 07:55:56;;;;;;;3.90;2.60;;;;;;;-145.63;60.52;39372.34;5058356;28;20412;-63
2023/12/19 07:58:21;;;;;;;3.70;2.97;;;;;;;-145.63;60.83;39360.63;5055463;28;20013;-62
2023/12/19 08:00:48;;;;;;;4.78;2.80;;;;;;;-145.63;61.02;39386.06;5058748;28;20047;-64
2023/12/19 08:03:15;;;;;;;4.10;2.97;;;;;;;-145.63;61.27;39382.13;5055102;28;20475;-65
2023/12/19 08:05:50;;;;;;;4.28;2.80;;;;;;;-145.63;61.13;39403.66;5059891;28;20063;-65
2023/12/19 08:08:17;;;;;;;5.68;3.33;;;;;;;-145.63;61.42;39372.34;5059286;28;20088;-65
2023/12/19 08:10:45;;;;;;;4.93;3.20;;;;;;;-145.63;60.98;39217.84;5057078;28;20041;-64
2023/12/19 08:13:11;;;;;;;4.45;2.80;;;;;;;-145.63;61.13;39376.28;5059282;28;20044;-64
2023/12/19 08:15:37;;;;;;;5.85;3.08;;;;;;;-145.63;60.90;39382.13;5053631;28;20041;-64
2023/12/19 08:18:03;;;;;;;5.28;3.30;;;;;;;-145.63;61.25;39362.59;5056555;28;20101;-64
2023/12/19 08:20:29;;;;;;;5.88;3.42;;;;;;;-145.63;61.78;39364.53;5059161;28;20224;-65
2023/12/19 08:22:56;;;;;;;4.72;3.17;;;;;;;-145.63;61.38;39399.75;5056913;28;20040;-64
2023/12/19 08:25:21;;;;;;;4.65;3.03;;;;;;;-145.63;61.79;39405.59;5051907;28;20032;-64
2023/12/19 08:27:47;;;;;;;5.18;2.88;;;;;;;-145.63;61.17;39350.84;5061293;28;20037;-64
2023/12/19 08:30:13;;;;;;;3.70;2.65;;;;;;;-145.63;61.74;39368.44;5044453;28;20329;-64
2023/12/19 08:32:39;;;;;;;3.42;3.03;;;;;;;-145.63;61.91;39382.13;5055098;28;20179;-65
2023/12/19 08:35:06;;;;;;;4.97;3.35;;;;;;;-145.63;61.50;39397.78;5060726;28;20353;-65
2023/12/19 08:37:31;;;;;;;5.68;3.55;;;;;;;-145.63;61.30;39344.97;5064712;28;20036;-66
2023/12/19 08:40:02;;;;;;;5.78;3.63;;;;;;;-145.63;61.60;39409.53;5064617;28;20030;-65
2023/12/19 08:42:30;;;;;;;6.60;3.70;;;;;;;-145.63;62.52;39358.66;5064895;28;20024;-64
2023/12/19 08:44:56;;;;;;;4.78;3.58;;;;;;;-145.63;62.26;39360.63;5064803;28;20029;-66
2023/12/19 08:47:23;;;;;;;6.47;3.85;;;;;;;-145.63;62.35;39374.31;5064028;28;20027;-63
2023/12/19 08:49:52;;;;;;;4.70;3.15;;;;;;;-145.63;62.35;39368.44;5064380;28;20318;-65
2023/12/19 08:52:20;;;;;;;6.38;3.80;;;;;;;-145.63;62.60;39382.13;5065084;28;20020;-65
2023/12/19 08:54:45;;;;;;;5.78;3.78;;;;;;;-145.63;62.10;39364.53;5067422;28;20060;-64
2023/12/19 08:57:11;;;;;;;3.85;3.40;;;;;;;-145.63;62.23;39366.50;5071274;28;20052;-65
2023/12/19 08:59:37;;;;;;;7.68;5.60;;;;;;;-145.63;62.52;39339.13;5057334;28;20294;-65
2023/12/19 09:02:04;;;;;;;3.97;2.80;;;;;;;-145.63;61.85;39370.41;5063495;28;20029;-65
2023/12/19 09:04:30;;;;;;;3.30;2.97;;;;;;;-145.63;61.95;39343.03;5064232;28;20017;-65
2023/12/19 09:06:56;;;;;;;5.38;3.22;;;;;;;-145.63;61.97;39333.25;5064526;28;20052;-64
2023/12/19 09:09:22;;;;;;;4.10;3.03;;;;;;;-145.63;61.96;39358.66;5065406;28;20175;-65
2023/12/19 09:11:48;;;;;;;4.25;2.85;;;;;;;-145.63;62.62;39378.22;5064282;28;20032;-65
2023/12/19 09:14:15;;;;;;;7.32;3.20;;;;;;;-145.63;62.31;39360.63;5058538;28;20272;-64
2023/12/19 09:16:41;;;;;;;6.57;3.03;;;;;;;-145.63;62.14;39344.97;5061948;28;20055;-65
2023/12/19 09:19:07;;;;;;;5.60;3.50;;;;;;;-145.63;62.12;39327.38;5061655;28;20024;-64
2023/12/19 09:21:33;;;;;;;5.55;3.45;;;;;;;-145.63;62.18;39356.72;5064491;28;20043;-65
2023/12/19 09:23:58;;;;;;;4.57;3.08;;;;;;;-145.63;62.04;39399.75;5058674;28;20048;-64
2023/12/19 09:26:24;;;;;;;4.70;2.90;;;;;;;-145.63;62.25;39374.31;5064133;28;20021;-65
2023/12/19 09:28:50;;;;;;;3.05;2.65;;;;;;;-145.63;61.67;39360.63;5064120;28;20055;-65
2023/12/19 09:31:16;;;;;;;5.72;3.10;;;;;;;-145.63;61.83;39382.13;5059629;28;20029;-65
2023/12/19 09:33:41;;;;;;;3.95;3.20;;;;;;;-145.63;62.02;39376.28;5063764;28;20029;-64
2023/12/19 09:36:08;;;;;;;4.55;3.35;;;;;;;-145.63;61.52;39376.28;5063010;28;20045;-64
2023/12/19 09:38:35;;;;;;;3.47;3.00;;;;;;;-145.63;61.78;39368.44;5063622;28;20033;-64
2023/12/19 09:41:04;;;;;;;3.88;3.33;;;;;;;-145.63;61.51;39376.28;5062863;28;20017;-66
2023/12/19 09:43:33;;;;;;;3.70;2.92;;;;;;;-145.63;62.08;39368.44;5063416;28;20024;-64
2023/12/19 09:46:02;;;;;;;4.30;3.65;;;;;;;-145.63;61.86;39317.59;5062983;28;20092;-65
2023/12/19 09:48:37;;;;;;;3.30;2.83;;;;;;;-145.63;61.53;39378.22;5063373;28;20021;-64
2023/12/19 09:51:04;;;;;;;3.22;2.50;;;;;;;-145.63;61.70;39374.31;5060587;28;20190;-64
2023/12/19 09:53:31;;;;;;;4.63;3.20;;;;;;;-145.63;61.82;39423.22;5062689;28;20084;-65
2023/12/19 09:55:58;;;;;;;2.75;2.50;;;;;;;-145.63;61.75;39411.47;5051517;28;20037;-65
2023/12/19 09:58:25;;;;;;;4.03;2.30;;;;;;;-145.63;61.88;39352.81;5053978;28;20104;-64
2023/12/19 10:00:52;;;;;;;3.33;2.40;;;;;;;-145.63;62.52;39388.00;5057858;28;20029;-64
2023/12/19 10:03:18;;;;;;;2.65;2.35;;;;;;;-145.63;62.50;39364.53;5060575;28;20037;-64
2023/12/19 10:05:44;;;;;;;3.13;2.42;;;;;;;-145.63;62.29;39376.28;5061470;28;20033;-65
2023/12/19 10:08:11;;;;;;;5.13;2.50;;;;;;;-145.63;62.06;39362.59;5062211;28;20033;-64
2023/12/19 10:10:53;;;;;;;3.42;2.58;;;;;;;-145.63;61.61;39356.72;5063018;28;20024;-65
2023/12/19 10:13:34;;;;;;;2.65;2.20;;;;;;;-145.63;61.45;39364.53;5063227;28;20411;-64
2023/12/19 10:16:04;;;;;;;3.22;2.10;;;;;;;-145.63;61.04;39364.53;5058865;28;20050;-65
2023/12/19 10:18:30;;;;;;;3.63;2.60;;;;;;;-145.63;61.21;39341.06;5086778;28;20216;-64
2023/12/19 10:21:04;;;;;;;2.72;2.20;;;;;;;-145.63;61.63;39372.34;5061274;28;20028;-64
2023/12/19 10:23:32;;;;;;;3.67;2.72;;;;;;;-145.63;61.69;39212.00;5060469;28;20047;-65
2023/12/19 10:25:58;;;;;;;4.18;2.55;;;;;;;-145.63;62.09;39360.63;5062546;28;20028;-64
2023/12/19 10:28:23;;;;;;;4.88;2.42;;;;;;;-145.63;62.21;39341.06;5058856;28;20147;-65
2023/12/19 10:30:49;;;;;;;7.07;2.60;;;;;;;-145.63;61.95;39356.72;5059199;28;20017;-63
2023/12/19 10:33:15;;;;;;;2.97;2.60;;;;;;;-145.63;62.04;39384.09;5062825;28;20041;-66
2023/12/19 10:35:44;;;;;;;4.18;2.90;;;;;;;-145.63;62.35;39354.75;5062486;28;20037;-65
2023/12/19 10:38:10;;;;;;;4.43;2.70;;;;;;;-145.63;62.22;39388.00;5056225;28;20226;-65
2023/12/19 10:40:37;;;;;;;5.32;2.88;;;;;;;-145.63;62.41;39374.31;5062800;28;20013;-65
2023/12/19 10:43:05;;;;;;;7.63;2.85;;;;;;;-145.63;61.66;39360.63;5060859;28;20333;-65
2023/12/19 10:45:31;;;;;;;4.43;2.30;;;;;;;-145.63;61.88;39350.84;5060138;28;20234;-65
2023/12/19 10:47:57;;;;;;;3.63;2.60;;;;;;;-145.63;62.03;39374.31;5060459;28;20124;-65
2023/12/19 10:50:23;;;;;;;3.90;2.78;;;;;;;-145.63;61.71;39378.22;5083294;28;20059;-66
2023/12/19 10:52:53;;;;;;;2.50;2.28;;;;;;;-145.63;62.13;39389.97;5064623;28;20029;-66
2023/12/19 10:55:27;;;;;;;3.17;2.40;;;;;;;-145.63;62.25;39368.44;5057969;28;20032;-65
2023/12/19 10:57:54;;;;;;;3.47;2.20;;;;;;;-145.63;62.64;39356.72;5045424;28;20318;-65
2023/12/19 11:00:24;;;;;;;3.50;2.30;;;;;;;-145.63;62.28;39374.31;5060065;28;20021;-66
2023/12/19 11:02:57;;;;;;;3.08;2.33;;;;;;;-145.63;62.87;39352.81;5060096;28;20345;-65
2023/12/19 11:05:42;;;;;;;4.60;2.35;;;;;;;-145.63;62.81;39360.63;5060856;28;20056;-64
2023/12/19 11:08:15;;;;;;;3.88;2.50;;;;;;;-145.63;62.60;39344.97;5059034;28;20028;-64
2023/12/19 11:11:09;;;;;;;4.03;2.83;;;;;;;-145.63;62.65;39417.34;5060247;28;20025;-65
2023/12/19 11:13:36;;;;;;;4.80;2.60;;;;;;;-145.63;63.10;39395.84;5059520;28;20024;-65
2023/12/19 11:16:09;;;;;;;4.93;3.20;;;;;;;-145.63;63.18;39362.59;5058472;28;20049;-65